Time,TemperatureF,DewpointF,PressureIn,WindDirection,WindDirectionDegrees,WindSpeedMPH,WindSpeedGustMPH,Humidity,HourlyPrecipIn,Conditions,Clouds,dailyrainin,SoftwareType,DateUTC
2013-02-01 00:00:00,27.6,11.4,29.64,SW,236,1.9,9.2,50,0.00,CLR,,0.69,WeatherDisplay:10.37,2013-02-01 05:00:00,
2013-02-01 00:01:00,27.6,11.4,29.64,WNW,284,2.2,3.5,50,0.00,CLR,,0.00,WeatherDisplay:10.37,2013-02-01 05:01:00,
2013-02-01 00:03:00,27.5,11.3,29.64,West,275,8.0,11.5,50,0.00,CLR,,0.00,WeatherDisplay:10.37,2013-02-01 05:03:00,
2013-02-01 00:08:00,27.5,10.4,29.64,West,272,5.2,15.0,48,0.00,CLR,,0.00,WeatherDisplay:10.37,2013-02-01 05:08:00,
2013-02-01 00:13:00,27.5,9.9,29.64,WNW,285,5.6,8.1,47,0.00,CLR,,0.00,WeatherDisplay:10.37,2013-02-01 05:13:00,
2013-02-01 00:19:00,27.3,9.2,29.64,NW,313,6.0,11.5,46,0.00,CLR,,0.00,WeatherDisplay:10.37,2013-02-01 05:19:00,
2013-02-01 00:24:00,27.3,9.2,29.64,SSW,194,5.9,11.5,46,0.00,CLR,,0.00,WeatherDisplay:10.37,2013-02-01 05:24:00,
2013-02-01 00:29:00,27.2,9.6,29.65,West,266,3.1,5.8,47,0.00,CLR,,0.00,WeatherDisplay:10.37,2013-02-01 05:29:00,
2013-02-01 00:34:00,27.2,9.1,29.65,WNW,295,6.5,10.4,46,0.00,CLR,,0.00,WeatherDisplay:10.37,2013-02-01 05:34:00,
2013-02-01 00:40:00,27.2,8.6,29.65,WSW,249,4.7,7.0,45,0.00,CLR,,0.00,WeatherDisplay:10.37,2013-02-01 05:40:00,
2013-02-01 00:45:00,27.3,8.2,29.65,WSW,254,6.0,13.8,44,0.00,CLR,,0.00,WeatherDisplay:10.37,2013-02-01 05:45:00,
2013-02-01 00:50:00,27.2,9.1,29.65,West,261,4.0,5.8,46,0.00,CLR,,0.00,WeatherDisplay:10.37,2013-02-01 05:50:00,
2013-02-01 00:55:00,27.2,8.1,29.65,WSW,251,4.0,6.9,44,0.00,CLR,,0.00,WeatherDisplay:10.37,2013-02-01 05:55:00,
2013-02-01 01:01:00,27.0,8.9,29.65,SW,235,2.7,5.8,46,0.00,CLR,,0.00,WeatherDisplay:10.37,2013-02-01 06:01:00,
2013-02-01 01:06:00,26.9,9.3,29.66,WSW,254,2.4,5.8,47,0.00,CLR,,0.00,WeatherDisplay:10.37,2013-02-01 06:06:00,
2013-02-01 01:11:00,26.7,8.7,29.66,WSW,252,4.0,10.4,46,0.00,CLR,,0.00,WeatherDisplay:10.37,2013-02-01 06:11:00,
2013-02-01 01:16:00,26.9,8.4,29.66,West,271,4.1,5.8,45,0.00,CLR,,0.00,WeatherDisplay:10.37,2013-02-01 06:16:00,
2013-02-01 01:22:00,26.7,8.7,29.67,West,270,6.2,10.4,46,0.00,CLR,,0.00,WeatherDisplay:10.37,2013-02-01 06:22:00,
2013-02-01 01:27:00,26.7,8.2,29.67,WSW,250,5.0,10.4,45,0.00,CLR,,0.00,WeatherDisplay:10.37,2013-02-01 06:27:00,
2013-02-01 01:32:00,26.7,8.7,29.67,WSW,243,5.5,10.4,46,0.00,CLR,,0.00,WeatherDisplay:10.37,2013-02-01 06:32:00,
2013-02-01 01:37:00,26.7,8.7,29.67,West,273,3.9,15.0,46,0.00,CLR,,0.00,WeatherDisplay:10.37,2013-02-01 06:37:00,
2013-02-01 01:42:00,26.6,8.6,29.67,WNW,288,5.0,12.7,46,0.00,CLR,,0.00,WeatherDisplay:10.37,2013-02-01 06:42:00,
2013-02-01 01:48:00,26.6,9.1,29.67,West,276,6.7,11.5,47,0.00,CLR,,0.00,WeatherDisplay:10.37,2013-02-01 06:48:00,
2013-02-01 01:53:00,26.4,8.9,29.67,SW,229,7.0,11.5,47,0.00,CLR,,0.00,WeatherDisplay:10.37,2013-02-01 06:53:00,
2013-02-01 01:58:00,26.4,9.3,29.67,West,265,3.8,4.6,48,0.00,CLR,,0.00,WeatherDisplay:10.37,2013-02-01 06:58:00,
2013-02-01 02:03:00,26.4,9.3,29.67,WNW,298,1.4,4.0,48,0.00,CLR,,0.00,WeatherDisplay:10.37,2013-02-01 07:03:00,
2013-02-01 02:08:00,26.4,9.3,29.67,NW,319,4.6,6.9,48,0.00,CLR,,0.00,WeatherDisplay:10.37,2013-02-01 07:08:00,
2013-02-01 02:14:00,26.4,9.3,29.68,WSW,246,4.0,9.2,48,0.00,CLR,,0.00,WeatherDisplay:10.37,2013-02-01 07:14:00,
2013-02-01 02:19:00,26.4,9.3,29.68,West,266,4.7,9.2,48,0.00,CLR,,0.00,WeatherDisplay:10.37,2013-02-01 07:19:00,
2013-02-01 02:24:00,26.3,9.2,29.67,West,269,3.9,5.0,48,0.00,CLR,,0.00,WeatherDisplay:10.37,2013-02-01 07:24:00,
2013-02-01 02:29:00,26.3,9.7,29.67,SW,225,3.8,6.9,49,0.00,CLR,,0.00,WeatherDisplay:10.37,2013-02-01 07:29:00,
2013-02-01 02:34:00,26.3,9.7,29.67,WSW,243,1.9,3.5,49,0.00,CLR,,0.00,WeatherDisplay:10.37,2013-02-01 07:34:00,
2013-02-01 02:40:00,26.1,10.4,29.67,NW,318,1.2,3.5,51,0.00,CLR,,0.00,WeatherDisplay:10.37,2013-02-01 07:40:00,
2013-02-01 02:45:00,26.0,10.8,29.67,WSW,249,4.7,10.4,52,0.00,CLR,,0.00,WeatherDisplay:10.37,2013-02-01 07:45:00,
2013-02-01 02:50:00,26.1,10.9,29.67,SW,217,3.9,5.8,52,0.00,CLR,,0.00,WeatherDisplay:10.37,2013-02-01 07:50:00,
2013-02-01 02:55:00,26.1,10.9,29.67,West,260,2.0,3.5,52,0.00,CLR,,0.00,WeatherDisplay:10.37,2013-02-01 07:55:00,
2013-02-01 03:01:00,26.1,10.9,29.67,West,259,4.9,6.9,52,0.00,CLR,,0.00,WeatherDisplay:10.37,2013-02-01 08:01:00,
2013-02-01 03:06:00,26.3,11.5,29.67,WSW,257,1.7,5.8,53,0.00,CLR,,0.00,WeatherDisplay:10.37,2013-02-01 08:06:00,
2013-02-01 03:11:00,26.3,11.5,29.67,NW,315,1.9,4.6,53,0.00,CLR,,0.00,WeatherDisplay:10.37,2013-02-01 08:11:00,
2013-02-01 03:16:00,26.3,11.5,29.67,WNW,295,1.5,3.5,53,0.00,CLR,,0.00,WeatherDisplay:10.37,2013-02-01 08:16:00,
2013-02-01 03:22:00,26.3,11.5,29.67,WSW,246,3.1,5.8,53,0.00,CLR,,0.00,WeatherDisplay:10.37,2013-02-01 08:22:00,
2013-02-01 03:27:00,26.4,12.4,29.67,West,273,5.5,8.1,55,0.00,CLR,,0.00,WeatherDisplay:10.37,2013-02-01 08:27:00,
2013-02-01 03:32:00,26.3,11.9,29.67,West,275,1.6,3.5,54,0.00,CLR,,0.00,WeatherDisplay:10.37,2013-02-01 08:32:00,
2013-02-01 03:38:00,26.3,11.9,29.67,WNW,297,3.7,5.8,54,0.00,CLR,,0.00,WeatherDisplay:10.37,2013-02-01 08:38:00,
2013-02-01 03:43:00,26.3,11.9,29.67,WSW,242,2.2,3.5,54,0.00,CLR,,0.00,WeatherDisplay:10.37,2013-02-01 08:43:00,
2013-02-01 03:48:00,26.3,12.3,29.67,WSW,238,3.3,4.6,55,0.00,CLR,,0.00,WeatherDisplay:10.37,2013-02-01 08:48:00,
2013-02-01 03:53:00,26.3,12.3,29.67,WSW,258,3.7,6.9,55,0.00,CLR,,0.00,WeatherDisplay:10.37,2013-02-01 08:53:00,
2013-02-01 03:59:00,26.3,11.9,29.67,SW,231,8.7,13.8,54,0.00,CLR,,0.00,WeatherDisplay:10.37,2013-02-01 08:59:00,
2013-02-01 04:04:00,26.1,12.1,29.67,WSW,244,3.0,5.8,55,0.00,CLR,,0.00,WeatherDisplay:10.37,2013-02-01 09:04:00,
2013-02-01 04:09:00,26.0,12.0,29.67,WSW,250,4.7,6.9,55,0.00,CLR,,0.00,WeatherDisplay:10.37,2013-02-01 09:09:00,
2013-02-01 04:15:00,26.0,12.0,29.67,SW,229,5.2,10.4,55,0.00,CLR,,0.00,WeatherDisplay:10.37,2013-02-01 09:15:00,
2013-02-01 04:20:00,25.8,11.8,29.67,WSW,240,3.1,4.6,55,0.00,CLR,,0.00,WeatherDisplay:10.37,2013-02-01 09:20:00,
2013-02-01 04:25:00,25.7,12.2,29.67,WSW,252,2.3,6.9,56,0.00,CLR,,0.00,WeatherDisplay:10.37,2013-02-01 09:25:00,
2013-02-01 04:30:00,25.7,11.7,29.67,WNW,301,2.2,3.5,55,0.00,CLR,,0.00,WeatherDisplay:10.37,2013-02-01 09:30:00,
2013-02-01 04:36:00,25.6,12.1,29.67,SW,218,1.8,3.5,56,0.00,CLR,,0.00,WeatherDisplay:10.37,2013-02-01 09:36:00,
2013-02-01 04:41:00,25.4,12.3,29.67,SW,236,1.5,2.3,57,0.00,CLR,,0.00,WeatherDisplay:10.37,2013-02-01 09:41:00,
2013-02-01 04:46:00,25.3,12.2,29.67,SSW,208,3.6,10.4,57,0.00,CLR,,0.00,WeatherDisplay:10.37,2013-02-01 09:46:00,
2013-02-01 04:51:00,25.1,12.4,29.68,SSW,211,4.7,10.0,58,0.00,CLR,,0.00,WeatherDisplay:10.37,2013-02-01 09:51:00,
2013-02-01 04:57:00,25.1,12.4,29.68,SW,224,7.1,11.5,58,0.00,CLR,,0.00,WeatherDisplay:10.37,2013-02-01 09:57:00,
2013-02-01 05:02:00,25.1,12.8,29.68,SW,236,2.1,4.6,59,0.00,CLR,,0.00,WeatherDisplay:10.37,2013-02-01 10:02:00,
2013-02-01 05:07:00,25.1,12.4,29.68,SW,223,4.2,6.9,58,0.00,CLR,,0.00,WeatherDisplay:10.37,2013-02-01 10:07:00,
2013-02-01 05:12:00,25.0,12.7,29.68,WSW,250,2.0,3.5,59,0.00,CLR,,0.00,WeatherDisplay:10.37,2013-02-01 10:12:00,
2013-02-01 05:17:00,25.0,13.1,29.68,SW,221,1.8,3.5,60,0.00,CLR,,0.00,WeatherDisplay:10.37,2013-02-01 10:17:00,
2013-02-01 05:23:00,24.8,12.9,29.69,WSW,257,3.4,5.8,60,0.00,CLR,,0.00,WeatherDisplay:10.37,2013-02-01 10:23:00,
2013-02-01 05:28:00,25.0,12.7,29.69,SW,236,4.3,8.1,59,0.00,CLR,,0.00,WeatherDisplay:10.37,2013-02-01 10:28:00,
2013-02-01 05:33:00,25.0,13.1,29.69,WSW,238,3.2,9.2,60,0.00,CLR,,0.00,WeatherDisplay:10.37,2013-02-01 10:33:00,
2013-02-01 05:38:00,25.0,12.7,29.69,WSW,239,3.5,9.2,59,0.00,CLR,,0.00,WeatherDisplay:10.37,2013-02-01 10:38:00,
2013-02-01 05:43:00,24.8,12.9,29.70,WSW,255,3.3,10.4,60,0.00,CLR,,0.00,WeatherDisplay:10.37,2013-02-01 10:43:00,
2013-02-01 05:49:00,25.0,12.7,29.70,WSW,242,2.3,3.5,59,0.00,CLR,,0.00,WeatherDisplay:10.37,2013-02-01 10:49:00,
2013-02-01 05:54:00,24.8,12.9,29.70,SW,235,3.8,4.6,60,0.00,CLR,,0.00,WeatherDisplay:10.37,2013-02-01 10:54:00,
2013-02-01 05:59:00,24.8,12.5,29.71,WSW,248,1.8,3.5,59,0.00,CLR,,0.00,WeatherDisplay:10.37,2013-02-01 10:59:00,
2013-02-01 06:04:00,24.8,12.5,29.71,West,273,1.6,4.6,59,0.00,CLR,,0.00,WeatherDisplay:10.37,2013-02-01 11:04:00,
2013-02-01 06:09:00,24.8,12.5,29.71,West,265,1.6,3.5,59,0.00,CLR,,0.00,WeatherDisplay:10.37,2013-02-01 11:09:00,
2013-02-01 06:15:00,24.8,12.9,29.71,NNW,327,1.9,3.5,60,0.00,CLR,,0.00,WeatherDisplay:10.37,2013-02-01 11:15:00,
2013-02-01 06:20:00,24.8,12.9,29.72,West,260,3.1,6.9,60,0.00,CLR,,0.00,WeatherDisplay:10.37,2013-02-01 11:20:00,
2013-02-01 06:25:00,24.8,12.1,29.72,WSW,253,3.2,6.9,58,0.00,CLR,,0.00,WeatherDisplay:10.37,2013-02-01 11:25:00,
2013-02-01 06:30:00,24.8,12.1,29.72,SSW,208,4.2,6.0,58,0.00,CLR,,0.00,WeatherDisplay:10.37,2013-02-01 11:30:00,
2013-02-01 06:35:00,24.8,12.5,29.72,West,264,1.7,4.6,59,0.00,CLR,,0.00,WeatherDisplay:10.37,2013-02-01 11:35:00,
2013-02-01 06:41:00,24.8,12.5,29.72,WNW,294,3.5,5.8,59,0.00,CLR,,0.00,WeatherDisplay:10.37,2013-02-01 11:41:00,
2013-02-01 06:46:00,24.8,12.5,29.73,West,261,3.3,5.0,59,0.00,CLR,,0.00,WeatherDisplay:10.37,2013-02-01 11:46:00,
2013-02-01 06:51:00,24.8,12.5,29.73,West,265,3.3,8.1,59,0.00,CLR,,0.00,WeatherDisplay:10.37,2013-02-01 11:51:00,
2013-02-01 06:57:00,24.8,12.9,29.74,WSW,253,1.9,3.5,60,0.00,CLR,,0.00,WeatherDisplay:10.37,2013-02-01 11:57:00,
2013-02-01 07:02:00,24.7,13.1,29.74,WNW,287,2.4,4.6,61,0.00,CLR,,0.00,WeatherDisplay:10.37,2013-02-01 12:02:00,
2013-02-01 07:07:00,24.7,13.1,29.74,WSW,254,5.4,9.2,61,0.00,CLR,,0.00,WeatherDisplay:10.37,2013-02-01 12:07:00,
2013-02-01 07:12:00,24.7,13.9,29.74,SW,236,4.4,4.6,63,0.00,CLR,,0.00,WeatherDisplay:10.37,2013-02-01 12:12:00,
2013-02-01 07:18:00,24.7,13.5,29.74,WSW,246,7.2,7.2,62,0.00,CLR,,0.00,WeatherDisplay:10.37,2013-02-01 12:18:00,
2013-02-01 07:23:00,24.7,13.5,29.74,WSW,258,5.1,11.5,62,0.00,CLR,,0.00,WeatherDisplay:10.37,2013-02-01 12:23:00,
2013-02-01 07:28:00,24.7,13.5,29.75,West,267,2.3,3.5,62,0.00,CLR,,0.00,WeatherDisplay:10.37,2013-02-01 12:28:00,
2013-02-01 07:33:00,24.7,13.1,29.75,WSW,248,2.4,4.0,61,0.00,CLR,,0.00,WeatherDisplay:10.37,2013-02-01 12:33:00,
2013-02-01 07:38:00,24.7,12.8,29.75,WSW,241,6.3,15.0,60,0.00,CLR,,0.00,WeatherDisplay:10.37,2013-02-01 12:38:00,
2013-02-01 07:44:00,24.7,13.1,29.75,WSW,242,2.8,4.6,61,0.00,CLR,,0.00,WeatherDisplay:10.37,2013-02-01 12:44:00,
2013-02-01 07:49:00,24.7,12.8,29.76,WNW,288,4.8,13.0,60,0.00,CLR,,0.00,WeatherDisplay:10.37,2013-02-01 12:49:00,
2013-02-01 07:54:00,24.8,12.9,29.77,West,279,3.1,5.8,60,0.00,CLR,,0.00,WeatherDisplay:10.37,2013-02-01 12:54:00,
2013-02-01 07:59:00,24.8,12.5,29.76,SW,231,4.5,9.2,59,0.00,CLR,,0.00,WeatherDisplay:10.37,2013-02-01 12:59:00,
2013-02-01 08:04:00,25.0,12.7,29.77,West,272,3.0,5.8,59,0.00,CLR,,0.00,WeatherDisplay:10.37,2013-02-01 13:04:00,
2013-02-01 08:10:00,25.1,12.4,29.77,WSW,251,4.2,11.5,58,0.00,CLR,,0.00,WeatherDisplay:10.37,2013-02-01 13:10:00,
2013-02-01 08:15:00,25.3,12.2,29.77,WSW,257,5.8,13.8,57,0.00,CLR,,0.00,WeatherDisplay:10.37,2013-02-01 13:15:00,
2013-02-01 08:20:00,25.6,12.1,29.77,SW,232,7.1,10.4,56,0.00,CLR,,0.00,WeatherDisplay:10.37,2013-02-01 13:20:00,
2013-02-01 08:25:00,25.6,12.1,29.77,WSW,254,5.8,11.5,56,0.00,CLR,,0.00,WeatherDisplay:10.37,2013-02-01 13:25:00,
2013-02-01 08:30:00,25.7,11.7,29.77,WSW,242,3.5,6.9,55,0.00,CLR,,0.00,WeatherDisplay:10.37,2013-02-01 13:30:00,
2013-02-01 08:36:00,26.0,11.6,29.78,WNW,298,7.4,11.5,54,0.00,CLR,,0.00,WeatherDisplay:10.37,2013-02-01 13:36:00,
2013-02-01 08:41:00,26.0,11.6,29.78,West,270,5.0,10.0,54,0.00,CLR,,0.00,WeatherDisplay:10.37,2013-02-01 13:41:00,
2013-02-01 08:46:00,26.3,11.9,29.78,West,259,4.2,7.0,54,0.00,CLR,,0.00,WeatherDisplay:10.37,2013-02-01 13:46:00,
2013-02-01 08:51:00,26.7,11.8,29.78,West,277,5.3,9.2,53,0.00,CLR,,0.00,WeatherDisplay:10.37,2013-02-01 13:51:00,
2013-02-01 08:56:00,27.0,11.3,29.77,NNW,328,8.8,11.5,51,0.00,CLR,,0.00,WeatherDisplay:10.37,2013-02-01 13:56:00,
2013-02-01 09:01:00,27.0,11.3,29.77,WNW,286,5.3,11.5,51,0.00,CLR,,0.00,WeatherDisplay:10.37,2013-02-01 14:01:00,
2013-02-01 09:07:00,27.0,11.3,29.77,NW,304,8.0,11.5,51,0.00,CLR,,0.00,WeatherDisplay:10.37,2013-02-01 14:07:00,
2013-02-01 09:12:00,27.0,11.3,29.76,NW,324,9.9,12.7,51,0.00,CLR,,0.00,WeatherDisplay:10.37,2013-02-01 14:12:00,
2013-02-01 09:17:00,27.0,11.7,29.76,West,278,4.5,5.8,52,0.00,CLR,,0.00,WeatherDisplay:10.37,2013-02-01 14:17:00,
2013-02-01 09:23:00,26.9,11.6,29.76,West,273,6.4,16.1,52,0.00,CLR,,0.00,WeatherDisplay:10.37,2013-02-01 14:23:00,
2013-02-01 09:28:00,26.4,11.1,29.77,West,269,6.5,12.7,52,0.00,CLR,,0.00,WeatherDisplay:10.37,2013-02-01 14:28:00,
2013-02-01 09:33:00,26.1,10.9,29.77,West,272,8.2,16.1,52,0.00,CLR,,0.00,WeatherDisplay:10.37,2013-02-01 14:33:00,
2013-02-01 09:38:00,26.1,10.4,29.77,WNW,287,10.0,13.8,51,0.00,CLR,,0.00,WeatherDisplay:10.37,2013-02-01 14:38:00,
2013-02-01 09:43:00,26.3,10.6,29.77,West,273,4.3,11.5,51,0.00,CLR,,0.00,WeatherDisplay:10.37,2013-02-01 14:43:00,
2013-02-01 09:48:00,26.6,10.4,29.77,WSW,247,9.9,18.4,50,0.00,CLR,,0.00,WeatherDisplay:10.37,2013-02-01 14:48:00,
2013-02-01 09:54:00,26.7,10.5,29.78,WNW,290,10.9,15.0,50,0.00,CLR,,0.00,WeatherDisplay:10.37,2013-02-01 14:54:00,
2013-02-01 09:59:00,26.9,11.6,29.78,WNW,301,4.9,9.2,52,0.00,CLR,,0.00,WeatherDisplay:10.37,2013-02-01 14:59:00,
2013-02-01 10:04:00,27.0,11.7,29.78,WNW,303,5.4,9.2,52,0.00,CLR,,0.00,WeatherDisplay:10.37,2013-02-01 15:04:00,
2013-02-01 10:09:00,27.2,11.4,29.78,NNW,328,7.6,16.1,51,0.00,CLR,,0.00,WeatherDisplay:10.37,2013-02-01 15:09:00,
2013-02-01 10:14:00,27.6,12.2,29.78,NNW,332,5.3,9.2,52,0.00,CLR,,0.00,WeatherDisplay:10.37,2013-02-01 15:14:00,
2013-02-01 10:20:00,28.2,11.5,29.78,WNW,302,9.6,15.0,49,0.00,CLR,,0.00,WeatherDisplay:10.37,2013-02-01 15:20:00,
2013-02-01 10:25:00,28.7,11.9,29.78,NW,308,7.4,11.5,49,0.00,CLR,,0.00,WeatherDisplay:10.37,2013-02-01 15:25:00,
2013-02-01 10:30:00,28.8,11.6,29.78,WSW,255,5.7,11.5,48,0.00,CLR,,0.00,WeatherDisplay:10.37,2013-02-01 15:30:00,
2013-02-01 10:35:00,28.5,11.3,29.78,West,269,4.6,11.5,48,0.00,CLR,,0.00,WeatherDisplay:10.37,2013-02-01 15:35:00,
2013-02-01 10:40:00,28.4,12.1,29.79,WNW,297,5.1,5.1,50,0.00,CLR,,0.00,WeatherDisplay:10.37,2013-02-01 15:40:00,
2013-02-01 10:46:00,27.9,12.1,29.79,NW,311,6.0,9.2,51,0.00,CLR,,0.00,WeatherDisplay:10.37,2013-02-01 15:46:00,
2013-02-01 10:51:00,27.5,11.7,29.78,NNW,342,4.6,5.8,51,0.00,CLR,,0.00,WeatherDisplay:10.37,2013-02-01 15:51:00,
2013-02-01 10:56:00,27.0,11.3,29.79,NW,304,5.1,8.1,51,0.00,CLR,,0.00,WeatherDisplay:10.37,2013-02-01 15:56:00,
2013-02-01 11:01:00,26.9,10.7,29.79,NW,324,6.3,11.5,50,0.00,CLR,,0.00,WeatherDisplay:10.37,2013-02-01 16:01:00,
2013-02-01 11:06:00,27.2,10.1,29.79,NW,316,7.2,11.5,48,0.00,CLR,,0.00,WeatherDisplay:10.37,2013-02-01 16:06:00,
2013-02-01 11:12:00,27.8,9.2,29.78,WNW,292,7.4,9.2,45,0.00,CLR,,0.00,WeatherDisplay:10.37,2013-02-01 16:12:00,
2013-02-01 11:17:00,28.5,9.8,29.78,NW,318,7.4,11.5,45,0.00,CLR,,0.00,WeatherDisplay:10.37,2013-02-01 16:17:00,
2013-02-01 11:22:00,28.8,9.1,29.78,West,271,2.5,6.0,43,0.00,CLR,,0.00,WeatherDisplay:10.37,2013-02-01 16:22:00,
2013-02-01 11:27:00,29.0,8.2,29.78,WNW,286,7.7,11.5,41,0.00,CLR,,0.00,WeatherDisplay:10.37,2013-02-01 16:27:00,
2013-02-01 11:32:00,28.8,8.0,29.78,West,267,5.6,11.5,41,0.00,CLR,,0.00,WeatherDisplay:10.37,2013-02-01 16:32:00,
2013-02-01 11:38:00,29.1,7.7,29.78,West,281,6.5,10.4,40,0.00,CLR,,0.00,WeatherDisplay:10.37,2013-02-01 16:38:00,
2013-02-01 11:43:00,29.1,7.7,29.77,WNW,286,6.8,10.4,40,0.00,CLR,,0.00,WeatherDisplay:10.37,2013-02-01 16:43:00,
2013-02-01 11:48:00,29.0,7.1,29.77,WNW,303,4.5,10.4,39,0.00,CLR,,0.00,WeatherDisplay:10.37,2013-02-01 16:48:00,
2013-02-01 11:53:00,28.7,7.4,29.77,NNW,348,6.1,11.5,40,0.00,CLR,,0.00,WeatherDisplay:10.37,2013-02-01 16:53:00,
2013-02-01 11:58:00,28.2,6.4,29.77,WNW,284,6.3,11.5,39,0.00,CLR,,0.00,WeatherDisplay:10.37,2013-02-01 16:58:00,
2013-02-01 12:04:00,28.2,7.5,29.77,NW,316,7.1,9.0,41,0.00,CLR,,0.00,WeatherDisplay:10.37,2013-02-01 17:04:00,
2013-02-01 12:09:00,28.1,5.7,29.77,NNW,336,9.0,13.8,38,0.00,CLR,,0.00,WeatherDisplay:10.37,2013-02-01 17:09:00,
2013-02-01 12:14:00,27.8,5.4,29.77,WNW,302,7.6,10.4,38,0.00,CLR,,0.00,WeatherDisplay:10.37,2013-02-01 17:14:00,
2013-02-01 12:19:00,28.1,5.1,29.77,NNW,344,8.3,12.7,37,0.00,CLR,,0.00,WeatherDisplay:10.37,2013-02-01 17:19:00,
2013-02-01 12:24:00,28.4,6.6,29.77,North,351,6.7,10.4,39,0.00,CLR,,0.00,WeatherDisplay:10.37,2013-02-01 17:24:00,
2013-02-01 12:30:00,29.0,7.1,29.77,NW,322,7.8,11.5,39,0.00,CLR,,0.00,WeatherDisplay:10.37,2013-02-01 17:30:00,
2013-02-01 12:35:00,29.4,5.1,29.77,WNW,293,10.1,11.5,35,0.00,CLR,,0.00,WeatherDisplay:10.37,2013-02-01 17:35:00,
2013-02-01 12:40:00,30.0,5.6,29.77,NW,323,6.7,13.8,35,0.00,CLR,,0.00,WeatherDisplay:10.37,2013-02-01 17:40:00,
2013-02-01 12:45:00,30.3,5.2,29.77,NW,306,9.5,15.0,34,0.00,CLR,,0.00,WeatherDisplay:10.37,2013-02-01 17:45:00,
2013-02-01 12:51:00,30.4,5.3,29.77,NW,324,4.9,12.7,34,0.00,CLR,,0.00,WeatherDisplay:10.37,2013-02-01 17:51:00,
2013-02-01 12:56:00,30.7,4.9,29.77,NW,309,5.3,13.8,33,0.00,CLR,,0.00,WeatherDisplay:10.37,2013-02-01 17:56:00,
2013-02-01 13:01:00,30.6,6.1,29.77,NW,310,9.9,15.0,35,0.00,CLR,,0.00,WeatherDisplay:10.37,2013-02-01 18:01:00,
2013-02-01 13:06:00,29.8,4.8,29.77,NNW,341,11.1,17.3,34,0.00,CLR,,0.00,WeatherDisplay:10.37,2013-02-01 18:06:00,
2013-02-01 13:11:00,29.0,4.7,29.77,NW,313,9.1,11.5,35,0.00,CLR,,0.00,WeatherDisplay:10.37,2013-02-01 18:11:00,
2013-02-01 13:16:00,28.5,4.9,29.77,NW,321,10.8,14.0,36,0.00,CLR,,0.00,WeatherDisplay:10.37,2013-02-01 18:16:00,
2013-02-01 13:21:00,28.4,6.0,29.77,NW,306,8.9,11.5,38,0.00,CLR,,0.00,WeatherDisplay:10.37,2013-02-01 18:21:00,
2013-02-01 13:26:00,28.2,4.6,29.77,NNW,333,10.3,16.1,36,0.00,CLR,,0.00,WeatherDisplay:10.37,2013-02-01 18:26:00,
2013-02-01 13:32:00,28.1,5.1,29.77,NW,321,6.8,10.4,37,0.00,CLR,,0.00,WeatherDisplay:10.37,2013-02-01 18:32:00,
2013-02-01 13:37:00,27.9,5.5,29.78,NNW,336,8.8,10.4,38,0.00,CLR,,0.00,WeatherDisplay:10.37,2013-02-01 18:37:00,
2013-02-01 13:42:00,27.8,4.9,29.78,NW,321,8.4,13.8,37,0.00,CLR,,0.00,WeatherDisplay:10.37,2013-02-01 18:42:00,
2013-02-01 13:47:00,27.8,5.4,29.79,West,275,12.3,15.0,38,0.00,CLR,,0.00,WeatherDisplay:10.37,2013-02-01 18:47:00,
2013-02-01 13:52:00,27.8,4.3,29.78,NNW,346,11.7,17.3,36,0.00,CLR,,0.00,WeatherDisplay:10.37,2013-02-01 18:52:00,
2013-02-01 13:57:00,28.4,3.6,29.79,NNW,344,6.0,11.5,34,0.00,CLR,,0.00,WeatherDisplay:10.37,2013-02-01 18:57:00,
2013-02-01 14:02:00,28.8,4.5,29.79,NW,304,4.3,11.0,35,0.00,CLR,,0.00,WeatherDisplay:10.37,2013-02-01 19:02:00,
2013-02-01 14:08:00,29.0,3.4,29.79,NNW,339,3.5,6.9,33,0.00,CLR,,0.00,WeatherDisplay:10.37,2013-02-01 19:08:00,
2013-02-01 14:13:00,28.7,3.2,29.79,WNW,302,6.6,10.4,33,0.00,CLR,,0.00,WeatherDisplay:10.37,2013-02-01 19:13:00,
2013-02-01 14:18:00,28.5,2.3,29.80,WNW,300,5.6,11.5,32,0.00,CLR,,0.00,WeatherDisplay:10.37,2013-02-01 19:18:00,
2013-02-01 14:23:00,28.5,3.6,29.80,WNW,297,7.5,12.7,34,0.00,CLR,,0.00,WeatherDisplay:10.37,2013-02-01 19:23:00,
2013-02-01 14:28:00,28.7,3.8,29.80,NNW,327,4.2,9.2,34,0.00,CLR,,0.00,WeatherDisplay:10.37,2013-02-01 19:28:00,
2013-02-01 14:34:00,29.0,3.4,29.80,NNW,335,7.7,13.8,33,0.00,CLR,,0.00,WeatherDisplay:10.37,2013-02-01 19:34:00,
2013-02-01 14:39:00,29.4,2.4,29.81,NW,314,7.3,18.4,31,0.00,CLR,,0.00,WeatherDisplay:10.37,2013-02-01 19:39:00,
2013-02-01 14:44:00,29.5,3.2,29.81,NNW,333,7.4,13.0,32,0.00,CLR,,0.00,WeatherDisplay:10.37,2013-02-01 19:44:00,
2013-02-01 14:49:00,29.8,2.1,29.81,NW,309,8.7,16.1,30,0.00,CLR,,0.00,WeatherDisplay:10.37,2013-02-01 19:49:00,
2013-02-01 14:54:00,29.7,2.7,29.81,WNW,303,7.4,16.1,31,0.00,CLR,,0.00,WeatherDisplay:10.37,2013-02-01 19:54:00,
2013-02-01 15:00:00,29.3,3.7,29.82,West,272,8.9,11.5,33,0.00,CLR,,0.00,WeatherDisplay:10.37,2013-02-01 20:00:00,
2013-02-01 15:05:00,28.8,3.9,29.83,North,360,13.5,15.0,34,0.00,CLR,,0.00,WeatherDisplay:10.37,2013-02-01 20:05:00,
2013-02-01 15:10:00,28.4,6.0,29.83,NW,309,3.5,11.5,38,0.00,CLR,,0.00,WeatherDisplay:10.37,2013-02-01 20:10:00,
2013-02-01 15:15:00,28.2,6.4,29.83,NNW,327,11.3,15.0,39,0.00,CLR,,0.00,WeatherDisplay:10.37,2013-02-01 20:15:00,
2013-02-01 15:20:00,27.9,6.7,29.84,NW,326,6.2,12.7,40,0.00,CLR,,0.00,WeatherDisplay:10.37,2013-02-01 20:20:00,
2013-02-01 15:25:00,27.8,8.7,29.85,NW,309,5.2,12.7,44,0.00,CLR,,0.00,WeatherDisplay:10.37,2013-02-01 20:25:00,
2013-02-01 15:30:00,27.5,6.8,29.85,North,349,6.2,12.7,41,0.00,CLR,,0.00,WeatherDisplay:10.37,2013-02-01 20:30:00,
2013-02-01 15:35:00,27.3,6.7,29.85,NW,306,5.7,10.4,41,0.00,CLR,,0.00,WeatherDisplay:10.37,2013-02-01 20:35:00,
2013-02-01 15:40:00,27.2,6.6,29.85,WNW,288,7.8,11.5,41,0.00,CLR,,0.00,WeatherDisplay:10.37,2013-02-01 20:40:00,
2013-02-01 15:46:00,27.0,8.0,29.85,NW,322,9.6,17.3,44,0.00,CLR,,0.00,WeatherDisplay:10.37,2013-02-01 20:46:00,
2013-02-01 15:51:00,26.9,8.4,29.86,WNW,291,9.7,16.1,45,0.00,CLR,,0.00,WeatherDisplay:10.37,2013-02-01 20:51:00,
2013-02-01 15:56:00,26.9,8.4,29.86,NNW,333,10.3,17.3,45,0.00,CLR,,0.00,WeatherDisplay:10.37,2013-02-01 20:56:00,
2013-02-01 16:01:00,26.9,7.9,29.87,West,271,9.1,12.7,44,0.00,CLR,,0.00,WeatherDisplay:10.37,2013-02-01 21:01:00,
2013-02-01 16:07:00,27.0,8.9,29.87,West,275,11.4,17.3,46,0.00,CLR,,0.00,WeatherDisplay:10.37,2013-02-01 21:07:00,
2013-02-01 16:12:00,27.0,9.9,29.88,NW,317,7.5,15.0,48,0.00,CLR,,0.00,WeatherDisplay:10.37,2013-02-01 21:12:00,
2013-02-01 16:17:00,26.6,10.9,29.88,NNW,348,6.8,12.7,51,0.00,CLR,,0.00,WeatherDisplay:10.37,2013-02-01 21:17:00,
2013-02-01 16:22:00,26.3,10.6,29.89,North,355,4.2,9.2,51,0.00,CLR,,0.00,WeatherDisplay:10.37,2013-02-01 21:22:00,
2013-02-01 16:27:00,26.1,8.6,29.89,WNW,296,4.5,5.8,47,0.00,CLR,,0.00,WeatherDisplay:10.37,2013-02-01 21:27:00,
2013-02-01 16:32:00,26.0,8.0,29.90,West,264,5.3,9.2,46,0.00,CLR,,0.00,WeatherDisplay:10.37,2013-02-01 21:32:00,
2013-02-01 16:38:00,25.8,7.8,29.90,West,267,10.1,13.8,46,0.00,CLR,,0.00,WeatherDisplay:10.37,2013-02-01 21:38:00,
2013-02-01 16:43:00,25.7,6.8,29.90,WNW,297,10.3,16.1,44,0.00,CLR,,0.00,WeatherDisplay:10.37,2013-02-01 21:43:00,
2013-02-01 16:48:00,25.6,7.2,29.91,WNW,303,5.6,9.2,45,0.00,CLR,,0.00,WeatherDisplay:10.37,2013-02-01 21:48:00,
2013-02-01 16:53:00,25.4,6.0,29.91,WNW,286,5.0,11.5,43,0.00,CLR,,0.00,WeatherDisplay:10.37,2013-02-01 21:53:00,
2013-02-01 16:58:00,25.4,6.0,29.91,WNW,302,8.6,13.8,43,0.00,CLR,,0.00,WeatherDisplay:10.37,2013-02-01 21:58:00,
2013-02-01 17:04:00,25.4,7.0,29.92,NW,319,8.6,12.7,45,0.00,CLR,,0.00,WeatherDisplay:10.37,2013-02-01 22:04:00,
2013-02-01 17:09:00,25.3,7.4,29.93,North,355,4.6,8.1,46,0.00,CLR,,0.00,WeatherDisplay:10.37,2013-02-01 22:09:00,
2013-02-01 17:29:00,25.0,7.6,29.94,WNW,284,6.8,13.8,47,0.00,CLR,,0.00,WeatherDisplay:10.37,2013-02-01 22:29:00,
2013-02-01 17:35:00,25.0,7.1,29.94,NW,312,9.7,13.0,46,0.00,CLR,,0.00,WeatherDisplay:10.37,2013-02-01 22:35:00,
2013-02-01 17:40:00,24.8,5.4,29.95,NW,317,9.3,12.7,43,0.00,CLR,,0.00,WeatherDisplay:10.37,2013-02-01 22:40:00,
2013-02-01 17:46:00,24.7,5.3,29.96,NNW,333,3.3,4.6,43,0.00,CLR,,0.00,WeatherDisplay:10.37,2013-02-01 22:46:00,
2013-02-01 17:51:00,24.5,5.7,29.96,NW,309,3.4,6.9,44,0.00,CLR,,0.00,WeatherDisplay:10.37,2013-02-01 22:51:00,
2013-02-01 17:57:00,24.4,5.6,29.97,NW,304,4.0,9.2,44,0.00,CLR,,0.00,WeatherDisplay:10.37,2013-02-01 22:57:00,
2013-02-01 18:02:00,24.2,5.9,29.98,WNW,300,3.0,6.9,45,0.00,CLR,,0.00,WeatherDisplay:10.37,2013-02-01 23:02:00,
2013-02-01 18:08:00,24.1,5.8,29.98,NNW,344,6.7,11.5,45,0.00,CLR,,0.00,WeatherDisplay:10.37,2013-02-01 23:08:00,
2013-02-01 18:13:00,24.1,5.3,29.98,West,275,12.4,20.7,44,0.00,CLR,,0.00,WeatherDisplay:10.37,2013-02-01 23:13:00,
2013-02-01 18:18:00,23.9,5.1,29.98,NNW,329,11.4,16.1,44,0.00,CLR,,0.00,WeatherDisplay:10.37,2013-02-01 23:18:00,
2013-02-01 18:23:00,23.9,5.1,29.99,NNW,327,2.4,9.2,44,0.00,CLR,,0.00,WeatherDisplay:10.37,2013-02-01 23:23:00,
2013-02-01 18:28:00,23.8,6.0,30.00,NW,304,1.6,2.3,46,0.00,CLR,,0.00,WeatherDisplay:10.37,2013-02-01 23:28:00,
2013-02-01 18:34:00,23.8,5.5,30.00,NW,325,2.4,4.0,45,0.00,CLR,,0.00,WeatherDisplay:10.37,2013-02-01 23:34:00,
2013-02-01 18:39:00,23.5,4.8,30.00,NW,320,4.9,7.0,44,0.00,CLR,,0.00,WeatherDisplay:10.37,2013-02-01 23:39:00,
2013-02-01 18:44:00,23.5,4.8,30.01,NW,316,2.2,3.5,44,0.00,CLR,,0.00,WeatherDisplay:10.37,2013-02-01 23:44:00,
2013-02-01 18:49:00,23.3,4.1,30.01,WNW,286,4.5,6.9,43,0.00,CLR,,0.00,WeatherDisplay:10.37,2013-02-01 23:49:00,
2013-02-01 18:55:00,23.3,2.5,30.01,West,259,9.7,9.7,40,0.00,CLR,,0.00,WeatherDisplay:10.37,2013-02-01 23:55:00,
2013-02-01 19:00:00,23.3,2.0,30.01,West,272,7.6,9.2,39,0.00,CLR,,0.00,WeatherDisplay:10.37,2013-02-02 00:00:00,
2013-02-01 19:06:00,23.3,2.5,30.01,WNW,300,5.5,10.4,40,0.00,CLR,,0.00,WeatherDisplay:10.37,2013-02-02 00:06:00,
2013-02-01 19:11:00,23.3,2.5,30.01,NW,319,6.7,11.5,40,0.00,CLR,,0.00,WeatherDisplay:10.37,2013-02-02 00:11:00,
2013-02-01 19:16:00,23.2,2.9,30.02,WNW,297,3.8,5.0,41,0.00,CLR,,0.00,WeatherDisplay:10.37,2013-02-02 00:16:00,
2013-02-01 19:21:00,23.2,2.9,30.02,West,279,7.7,13.8,41,0.00,CLR,,0.00,WeatherDisplay:10.37,2013-02-02 00:21:00,
2013-02-01 19:26:00,23.0,2.8,30.02,NNW,331,6.8,11.5,41,0.00,CLR,,0.00,WeatherDisplay:10.37,2013-02-02 00:26:00,
2013-02-01 19:31:00,23.0,3.3,30.02,NNW,345,5.4,8.1,42,0.00,CLR,,0.00,WeatherDisplay:10.37,2013-02-02 00:31:00,
2013-02-01 19:39:00,22.9,3.7,30.02,NW,310,4.0,6.0,43,0.00,CLR,,0.00,WeatherDisplay:10.37,2013-02-02 00:39:00,
2013-02-01 19:45:00,22.9,3.7,30.03,NW,307,8.8,13.0,43,0.00,CLR,,0.00,WeatherDisplay:10.37,2013-02-02 00:45:00,
2013-02-01 19:50:00,22.7,4.0,30.03,WNW,301,4.9,6.9,44,0.00,CLR,,0.00,WeatherDisplay:10.37,2013-02-02 00:50:00,
2013-02-01 19:56:00,22.7,4.0,30.04,WNW,296,4.6,9.2,44,0.00,CLR,,0.00,WeatherDisplay:10.37,2013-02-02 00:56:00,
2013-02-01 20:01:00,22.7,4.5,30.04,NW,313,7.1,10.4,45,0.00,CLR,,0.00,WeatherDisplay:10.37,2013-02-02 01:01:00,
2013-02-01 20:06:00,22.7,4.5,30.04,NW,317,2.2,3.5,45,0.00,CLR,,0.00,WeatherDisplay:10.37,2013-02-02 01:06:00,
2013-02-01 20:11:00,22.5,4.3,30.04,NW,313,1.8,4.0,45,0.00,CLR,,0.00,WeatherDisplay:10.37,2013-02-02 01:11:00,
2013-02-01 20:16:00,22.4,4.7,30.04,NW,313,3.6,4.6,46,0.00,CLR,,0.00,WeatherDisplay:10.37,2013-02-02 01:16:00,
2013-02-01 20:21:00,22.4,4.7,30.04,WNW,284,4.5,4.5,46,0.00,CLR,,0.00,WeatherDisplay:10.37,2013-02-02 01:21:00,
2013-02-01 20:27:00,22.2,4.1,30.05,WNW,283,3.4,4.6,45,0.00,CLR,,0.00,WeatherDisplay:10.37,2013-02-02 01:27:00,
2013-02-01 20:32:00,22.2,5.0,30.05,WNW,299,1.6,3.5,47,0.00,CLR,,0.00,WeatherDisplay:10.37,2013-02-02 01:32:00,
2013-02-01 20:37:00,22.1,4.4,30.05,NW,309,1.2,3.5,46,0.00,CLR,,0.00,WeatherDisplay:10.37,2013-02-02 01:37:00,
2013-02-01 20:42:00,21.9,4.7,30.05,WNW,302,3.4,4.6,47,0.00,CLR,,0.00,WeatherDisplay:10.37,2013-02-02 01:42:00,
2013-02-01 20:47:00,21.9,4.7,30.06,WNW,287,2.0,3.5,47,0.00,CLR,,0.00,WeatherDisplay:10.37,2013-02-02 01:47:00,
2013-02-01 20:52:00,21.8,5.1,30.06,West,276,1.4,3.5,48,0.00,CLR,,0.00,WeatherDisplay:10.37,2013-02-02 01:52:00,
2013-02-01 20:57:00,21.8,5.1,30.06,NW,305,1.9,3.5,48,0.00,CLR,,0.00,WeatherDisplay:10.37,2013-02-02 01:57:00,
2013-02-01 21:03:00,21.6,5.4,30.06,WNW,303,1.2,2.3,49,0.00,CLR,,0.00,WeatherDisplay:10.37,2013-02-02 02:03:00,
2013-02-01 21:08:00,21.4,5.2,30.06,WNW,303,0.0,0.0,49,0.00,CLR,,0.00,WeatherDisplay:10.37,2013-02-02 02:08:00,
2013-02-01 21:13:00,21.4,5.6,30.06,NNW,331,3.4,5.8,50,0.00,CLR,,0.00,WeatherDisplay:10.37,2013-02-02 02:13:00,
2013-02-01 21:18:00,21.4,5.6,30.07,WNW,288,2.7,4.6,50,0.00,CLR,,0.00,WeatherDisplay:10.37,2013-02-02 02:18:00,
2013-02-01 21:23:00,21.3,5.5,30.07,NNW,328,0.3,1.1,50,0.00,CLR,,0.00,WeatherDisplay:10.37,2013-02-02 02:23:00,
2013-02-01 21:28:00,21.3,6.0,30.07,NW,309,0.6,2.3,51,0.00,CLR,,0.00,WeatherDisplay:10.37,2013-02-02 02:28:00,
2013-02-01 21:33:00,21.3,5.5,30.07,WNW,292,1.3,3.5,50,0.00,CLR,,0.00,WeatherDisplay:10.37,2013-02-02 02:33:00,
2013-02-01 22:09:00,22.1,5.4,30.08,WSW,253,1.7,4.0,48,0.00,CLR,,0.00,WeatherDisplay:10.37,2013-02-02 03:09:00,
2013-02-01 22:15:00,22.1,6.3,30.08,WNW,290,2.6,3.5,50,0.00,CLR,,0.00,WeatherDisplay:10.37,2013-02-02 03:15:00,
2013-02-01 22:20:00,22.1,6.3,30.08,NW,304,1.8,5.8,50,0.00,CLR,,0.00,WeatherDisplay:10.37,2013-02-02 03:20:00,
2013-02-01 22:25:00,21.9,5.6,30.08,West,263,1.1,6.9,49,0.00,CLR,,0.00,WeatherDisplay:10.37,2013-02-02 03:25:00,
2013-02-01 22:30:00,21.9,6.1,30.08,WSW,255,2.9,5.8,50,0.00,CLR,,0.00,WeatherDisplay:10.37,2013-02-02 03:30:00,
2013-02-01 22:35:00,21.9,5.6,30.08,SW,225,2.2,5.8,49,0.00,CLR,,0.00,WeatherDisplay:10.37,2013-02-02 03:35:00,
2013-02-01 22:41:00,21.9,6.1,30.08,WNW,292,5.4,9.2,50,0.00,CLR,,0.00,WeatherDisplay:10.37,2013-02-02 03:41:00,
2013-02-01 22:46:00,21.9,6.1,30.08,SSW,209,0.9,5.0,50,0.00,CLR,,0.00,WeatherDisplay:10.37,2013-02-02 03:46:00,
2013-02-01 22:51:00,21.9,6.1,30.09,WNW,284,2.0,5.0,50,0.00,CLR,,0.00,WeatherDisplay:10.37,2013-02-02 03:51:00,
2013-02-01 22:56:00,21.9,6.5,30.09,WNW,285,1.6,4.6,51,0.00,CLR,,0.00,WeatherDisplay:10.37,2013-02-02 03:56:00,
2013-02-01 23:01:00,21.8,6.4,30.09,NW,306,3.2,11.5,51,0.00,CLR,,0.00,WeatherDisplay:10.37,2013-02-02 04:01:00,
2013-02-01 23:07:00,21.8,6.4,30.09,NW,315,2.7,4.6,51,0.00,CLR,,0.00,WeatherDisplay:10.37,2013-02-02 04:07:00,
2013-02-01 23:12:00,21.8,6.4,30.09,NW,319,6.7,11.5,51,0.00,CLR,,0.00,WeatherDisplay:10.37,2013-02-02 04:12:00,
2013-02-01 23:17:00,21.8,6.4,30.10,NW,313,6.1,10.4,51,0.00,CLR,,0.00,WeatherDisplay:10.37,2013-02-02 04:17:00,
2013-02-01 23:22:00,21.6,6.7,30.10,WNW,297,2.8,9.2,52,0.00,CLR,,0.00,WeatherDisplay:10.37,2013-02-02 04:22:00,
2013-02-01 23:27:00,21.4,6.9,30.10,WNW,290,1.8,2.3,53,0.00,CLR,,0.00,WeatherDisplay:10.37,2013-02-02 04:27:00,
2013-02-01 23:33:00,21.3,7.2,30.10,WNW,282,0.4,1.1,54,0.00,CLR,,0.00,WeatherDisplay:10.37,2013-02-02 04:33:00,
2013-02-01 23:38:00,21.1,7.0,30.10,West,271,1.6,3.5,54,0.00,CLR,,0.00,WeatherDisplay:10.37,2013-02-02 04:38:00,
2013-02-01 23:43:00,21.1,7.4,30.11,West,266,2.8,6.9,55,0.00,CLR,,0.00,WeatherDisplay:10.37,2013-02-02 04:43:00,
2013-02-01 23:48:00,21.0,7.3,30.11,WNW,291,2.8,3.5,55,0.00,CLR,,0.00,WeatherDisplay:10.37,2013-02-02 04:48:00,
2013-02-01 23:54:00,21.0,7.7,30.11,NW,305,1.5,2.3,56,0.00,CLR,,0.00,WeatherDisplay:10.37,2013-02-02 04:54:00,
2013-02-01 23:59:00,20.8,7.6,30.11,NW,306,3.8,10.4,56,0.00,CLR,,0.00,WeatherDisplay:10.37,2013-02-02 04:59:00,